sensor_id;sensor_type;location;lat;lon;timestamp;pressure;altitude;pressure_sealevel;temperature;humidity
50484;BME280;36409;52.168;20.878;2024-01-15T00:02:24;98328.62;;;-0.02;82.93
50484;BME280;36409;52.168;20.878;2024-01-15T00:04:55;98324.35;;;-0.03;83.05
50484;BME280;36409;52.168;20.878;2024-01-15T00:07:29;98317.52;;;-0.02;83.06
50484;BME280;36409;52.168;20.878;2024-01-15T00:09:59;98318.36;;;-0.02;82.80
50484;BME280;36409;52.168;20.878;2024-01-15T00:12:29;98307.27;;;-0.02;82.83
50484;BME280;36409;52.168;20.878;2024-01-15T00:14:58;98312.39;;;-0.02;82.32
50484;BME280;36409;52.168;20.878;2024-01-15T00:17:28;98307.27;;;-0.02;82.26
50484;BME280;36409;52.168;20.878;2024-01-15T00:19:57;98295.30;;;-0.03;82.27
50484;BME280;36409;52.168;20.878;2024-01-15T00:22:27;98291.86;;;-0.04;83.17
50484;BME280;36409;52.168;20.878;2024-01-15T00:24:59;98285.03;;;-0.03;82.04
50484;BME280;36409;52.168;20.878;2024-01-15T00:27:28;98272.20;;;-0.03;82.34
50484;BME280;36409;52.168;20.878;2024-01-15T00:29:59;98266.22;;;-0.02;82.60
50484;BME280;36409;52.168;20.878;2024-01-15T00:32:32;98274.75;;;-0.02;82.21
50484;BME280;36409;52.168;20.878;2024-01-15T00:35:05;98270.50;;;-0.01;82.76
50484;BME280;36409;52.168;20.878;2024-01-15T00:37:36;98259.36;;;-0.02;82.27
50484;BME280;36409;52.168;20.878;2024-01-15T00:40:10;98258.53;;;-0.02;81.96
50484;BME280;36409;52.168;20.878;2024-01-15T00:42:40;98255.11;;;-0.04;82.34
50484;BME280;36409;52.168;20.878;2024-01-15T00:45:10;98256.80;;;-0.05;82.18
50484;BME280;36409;52.168;20.878;2024-01-15T00:47:40;98249.13;;;-0.06;82.30
50484;BME280;36409;52.168;20.878;2024-01-15T00:50:11;98249.98;;;-0.07;82.03
50484;BME280;36409;52.168;20.878;2024-01-15T00:52:47;98242.30;;;-0.10;82.94
50484;BME280;36409;52.168;20.878;2024-01-15T00:55:31;98247.47;;;-0.13;82.36
50484;BME280;36409;52.168;20.878;2024-01-15T00:58:00;98238.92;;;-0.16;81.82
50484;BME280;36409;52.168;20.878;2024-01-15T01:00:30;98238.07;;;-0.18;82.06
50484;BME280;36409;52.168;20.878;2024-01-15T01:03:02;98235.52;;;-0.19;82.11
50484;BME280;36409;52.168;20.878;2024-01-15T01:05:33;98242.34;;;-0.20;82.09
50484;BME280;36409;52.168;20.878;2024-01-15T01:08:06;98220.98;;;-0.22;82.78
50484;BME280;36409;52.168;20.878;2024-01-15T01:10:37;98227.00;;;-0.23;82.23
50484;BME280;36409;52.168;20.878;2024-01-15T01:13:06;98220.14;;;-0.22;82.24
50484;BME280;36409;52.168;20.878;2024-01-15T01:15:41;98216.74;;;-0.23;82.32
50484;BME280;36409;52.168;20.878;2024-01-15T01:18:10;98225.29;;;-0.24;82.87
50484;BME280;36409;52.168;20.878;2024-01-15T01:20:39;98214.16;;;-0.24;82.81
50484;BME280;36409;52.168;20.878;2024-01-15T01:23:11;98216.73;;;-0.24;82.90
50484;BME280;36409;52.168;20.878;2024-01-15T01:25:42;98218.45;;;-0.25;82.38
50484;BME280;36409;52.168;20.878;2024-01-15T01:28:11;98218.45;;;-0.25;82.41
50484;BME280;36409;52.168;20.878;2024-01-15T01:30:40;98209.91;;;-0.24;82.52
50484;BME280;36409;52.168;20.878;2024-01-15T01:33:10;98202.21;;;-0.24;82.86
50484;BME280;36409;52.168;20.878;2024-01-15T01:35:42;98194.50;;;-0.25;83.11
50484;BME280;36409;52.168;20.878;2024-01-15T01:38:12;98188.54;;;-0.26;82.20
50484;BME280;36409;52.168;20.878;2024-01-15T01:40:41;98198.78;;;-0.24;83.14
50484;BME280;36409;52.168;20.878;2024-01-15T01:43:12;98193.66;;;-0.23;83.10
50484;BME280;36409;52.168;20.878;2024-01-15T01:45:41;98185.97;;;-0.23;82.85
50484;BME280;36409;52.168;20.878;2024-01-15T01:48:10;98177.41;;;-0.23;82.21
50484;BME280;36409;52.168;20.878;2024-01-15T01:50:40;98176.55;;;-0.22;82.94
50484;BME280;36409;52.168;20.878;2024-01-15T01:53:10;98168.00;;;-0.21;82.66
50484;BME280;36409;52.168;20.878;2024-01-15T01:55:43;98168.84;;;-0.21;82.23
50484;BME280;36409;52.168;20.878;2024-01-15T01:58:15;98168.84;;;-0.21;82.56
50484;BME280;36409;52.168;20.878;2024-01-15T02:00:48;98166.27;;;-0.21;83.27
50484;BME280;36409;52.168;20.878;2024-01-15T02:03:21;98162.01;;;-0.20;83.24
50484;BME280;36409;52.168;20.878;2024-01-15T02:05:51;98163.70;;;-0.21;83.07
50484;BME280;36409;52.168;20.878;2024-01-15T02:08:24;98160.28;;;-0.20;82.52
50484;BME280;36409;52.168;20.878;2024-01-15T02:10:55;98157.72;;;-0.20;82.55
50484;BME280;36409;52.168;20.878;2024-01-15T02:13:24;98155.16;;;-0.20;82.40
50484;BME280;36409;52.168;20.878;2024-01-15T02:18:22;98149.19;;;-0.20;83.40
50484;BME280;36409;52.168;20.878;2024-01-15T02:20:54;98137.20;;;-0.20;82.59
50484;BME280;36409;52.168;20.878;2024-01-15T02:23:25;98135.50;;;-0.21;83.33
50484;BME280;36409;52.168;20.878;2024-01-15T02:25:57;98134.64;;;-0.20;82.96
50484;BME280;36409;52.168;20.878;2024-01-15T02:28:26;98130.37;;;-0.21;82.70
50484;BME280;36409;52.168;20.878;2024-01-15T02:30:58;98124.38;;;-0.20;82.60
50484;BME280;36409;52.168;20.878;2024-01-15T02:33:27;98114.12;;;-0.20;82.31
50484;BME280;36409;52.168;20.878;2024-01-15T02:35:57;98116.69;;;-0.20;83.14
50484;BME280;36409;52.168;20.878;2024-01-15T02:38:26;98114.99;;;-0.19;82.88
50484;BME280;36409;52.168;20.878;2024-01-15T02:40:55;98110.71;;;-0.22;82.88
50484;BME280;36409;52.168;20.878;2024-01-15T02:43:26;98114.98;;;-0.21;82.65
50484;BME280;36409;52.168;20.878;2024-01-15T02:45:57;98105.58;;;-0.22;83.29
50484;BME280;36409;52.168;20.878;2024-01-15T02:48:27;98104.75;;;-0.22;82.75
50484;BME280;36409;52.168;20.878;2024-01-15T02:51:01;98098.78;;;-0.23;83.07
50484;BME280;36409;52.168;20.878;2024-01-15T02:53:31;98091.08;;;-0.24;82.31
50484;BME280;36409;52.168;20.878;2024-01-15T02:56:00;98082.55;;;-0.25;83.31
50484;BME280;36409;52.168;20.878;2024-01-15T02:58:35;98071.42;;;-0.25;82.55
50484;BME280;36409;52.168;20.878;2024-01-15T03:01:04;98062.03;;;-0.25;82.78
50484;BME280;36409;52.168;20.878;2024-01-15T03:03:33;98063.73;;;-0.25;83.33
50484;BME280;36409;52.168;20.878;2024-01-15T03:06:08;98064.59;;;-0.25;83.37
50484;BME280;36409;52.168;20.878;2024-01-15T03:08:38;98056.04;;;-0.25;83.02
50484;BME280;36409;52.168;20.878;2024-01-15T03:11:07;98057.77;;;-0.26;83.07
50484;BME280;36409;52.168;20.878;2024-01-15T03:13:39;98050.95;;;-0.28;83.28
50484;BME280;36409;52.168;20.878;2024-01-15T03:16:18;98045.81;;;-0.30;82.59
50484;BME280;36409;52.168;20.878;2024-01-15T03:18:49;98043.27;;;-0.33;82.15
50484;BME280;36409;52.168;20.878;2024-01-15T03:21:23;98041.59;;;-0.34;82.40
50484;BME280;36409;52.168;20.878;2024-01-15T03:23:55;98040.75;;;-0.36;83.00
50484;BME280;36409;52.168;20.878;2024-01-15T03:26:24;98035.63;;;-0.36;82.45
50484;BME280;36409;52.168;20.878;2024-01-15T03:28:53;98028.79;;;-0.37;82.58
50484;BME280;36409;52.168;20.878;2024-01-15T03:31:22;98028.79;;;-0.37;82.90
50484;BME280;36409;52.168;20.878;2024-01-15T03:33:53;98027.92;;;-0.38;82.73
50484;BME280;36409;52.168;20.878;2024-01-15T03:36:25;98034.75;;;-0.37;82.53
50484;BME280;36409;52.168;20.878;2024-01-15T03:38:54;98023.66;;;-0.37;83.06
50484;BME280;36409;52.168;20.878;2024-01-15T03:41:25;98024.50;;;-0.37;83.43
50484;BME280;36409;52.168;20.878;2024-01-15T03:43:57;98022.80;;;-0.36;83.07
50484;BME280;36409;52.168;20.878;2024-01-15T03:46:30;98015.11;;;-0.36;82.46
50484;BME280;36409;52.168;20.878;2024-01-15T03:48:59;98009.13;;;-0.35;82.77
50484;BME280;36409;52.168;20.878;2024-01-15T03:51:28;98004.83;;;-0.35;82.75
50484;BME280;36409;52.168;20.878;2024-01-15T03:53:58;98002.27;;;-0.35;82.35
50484;BME280;36409;52.168;20.878;2024-01-15T03:56:30;97992.04;;;-0.36;82.52
50484;BME280;36409;52.168;20.878;2024-01-15T03:58:59;97995.44;;;-0.36;82.89
50484;BME280;36409;52.168;20.878;2024-01-15T04:01:28;97997.14;;;-0.35;83.34
50484;BME280;36409;52.168;20.878;2024-01-15T04:03:57;97989.48;;;-0.36;83.24
50484;BME280;36409;52.168;20.878;2024-01-15T04:06:27;97985.19;;;-0.36;82.43
50484;BME280;36409;52.168;20.878;2024-01-15T04:08:57;97975.79;;;-0.37;82.67
50484;BME280;36409;52.168;20.878;2024-01-15T04:11:26;97988.62;;;-0.35;82.72
50484;BME280;36409;52.168;20.878;2024-01-15T04:13:56;97979.20;;;-0.35;83.01
50484;BME280;36409;52.168;20.878;2024-01-15T04:16:26;97972.38;;;-0.34;82.66
50484;BME280;36409;52.168;20.878;2024-01-15T04:18:55;97962.95;;;-0.34;82.49
50484;BME280;36409;52.168;20.878;2024-01-15T04:21:24;97959.55;;;-0.34;82.57
50484;BME280;36409;52.168;20.878;2024-01-15T04:23:56;97956.98;;;-0.34;82.51
50484;BME280;36409;52.168;20.878;2024-01-15T04:26:33;97949.27;;;-0.33;83.21
50484;BME280;36409;52.168;20.878;2024-01-15T04:29:02;97941.59;;;-0.33;82.41
50484;BME280;36409;52.168;20.878;2024-01-15T04:31:31;97943.27;;;-0.30;83.46
50484;BME280;36409;52.168;20.878;2024-01-15T04:34:00;97934.70;;;-0.29;82.95
50484;BME280;36409;52.168;20.878;2024-01-15T04:36:30;97934.70;;;-0.29;83.26
50484;BME280;36409;52.168;20.878;2024-01-15T04:39:00;97935.58;;;-0.28;83.12
50484;BME280;36409;52.168;20.878;2024-01-15T04:41:34;97927.86;;;-0.27;83.42
50484;BME280;36409;52.168;20.878;2024-01-15T04:44:03;97922.73;;;-0.27;83.47
50484;BME280;36409;52.168;20.878;2024-01-15T04:46:33;97922.73;;;-0.27;83.70
50484;BME280;36409;52.168;20.878;2024-01-15T04:49:07;97927.83;;;-0.25;82.77
50484;BME280;36409;52.168;20.878;2024-01-15T04:51:44;97921.84;;;-0.24;83.00
50484;BME280;36409;52.168;20.878;2024-01-15T04:54:15;97926.97;;;-0.23;82.52
50484;BME280;36409;52.168;20.878;2024-01-15T04:56:53;97919.28;;;-0.23;83.38
50484;BME280;36409;52.168;20.878;2024-01-15T04:59:23;97926.08;;;-0.22;83.32
50484;BME280;36409;52.168;20.878;2024-01-15T05:01:55;97915.83;;;-0.22;82.62
50484;BME280;36409;52.168;20.878;2024-01-15T05:04:26;97908.13;;;-0.22;83.55
50484;BME280;36409;52.168;20.878;2024-01-15T05:06:59;97909.00;;;-0.21;83.23
50484;BME280;36409;52.168;20.878;2024-01-15T05:09:29;97910.70;;;-0.20;82.47
50484;BME280;36409;52.168;20.878;2024-01-15T05:12:01;97908.14;;;-0.20;82.68
50484;BME280;36409;52.168;20.878;2024-01-15T05:14:30;97900.45;;;-0.20;83.37
50484;BME280;36409;52.168;20.878;2024-01-15T05:17:04;97903.01;;;-0.20;82.78
50484;BME280;36409;52.168;20.878;2024-01-15T05:19:35;97898.74;;;-0.21;83.26
50484;BME280;36409;52.168;20.878;2024-01-15T05:22:14;97900.44;;;-0.22;83.02
50484;BME280;36409;52.168;20.878;2024-01-15T05:24:49;97897.02;;;-0.21;82.79
50484;BME280;36409;52.168;20.878;2024-01-15T05:27:20;97897.02;;;-0.21;83.16
50484;BME280;36409;52.168;20.878;2024-01-15T05:29:53;97903.01;;;-0.20;83.42
50484;BME280;36409;52.168;20.878;2024-01-15T05:32:22;97900.44;;;-0.22;83.08
50484;BME280;36409;52.168;20.878;2024-01-15T05:34:51;97902.14;;;-0.21;83.00
50484;BME280;36409;52.168;20.878;2024-01-15T05:37:23;97897.88;;;-0.20;82.47
50484;BME280;36409;52.168;20.878;2024-01-15T05:39:54;97906.41;;;-0.20;83.17
50484;BME280;36409;52.168;20.878;2024-01-15T05:42:25;97901.28;;;-0.20;83.21
50484;BME280;36409;52.168;20.878;2024-01-15T05:44:55;97891.89;;;-0.19;82.63
50484;BME280;36409;52.168;20.878;2024-01-15T05:47:24;97900.42;;;-0.19;82.52
50484;BME280;36409;52.168;20.878;2024-01-15T05:49:53;97900.42;;;-0.17;82.76
50484;BME280;36409;52.168;20.878;2024-01-15T05:52:31;97896.99;;;-0.18;82.80
50484;BME280;36409;52.168;20.878;2024-01-15T05:55:04;97902.98;;;-0.17;82.56
50484;BME280;36409;52.168;20.878;2024-01-15T05:57:34;97900.42;;;-0.17;82.54
50484;BME280;36409;52.168;20.878;2024-01-15T06:00:04;97898.69;;;-0.17;82.12
50484;BME280;36409;52.168;20.878;2024-01-15T06:02:33;97893.56;;;-0.17;82.36
50484;BME280;36409;52.168;20.878;2024-01-15T06:05:03;97883.31;;;-0.17;82.39
50484;BME280;36409;52.168;20.878;2024-01-15T06:07:33;97881.61;;;-0.18;83.01
50484;BME280;36409;52.168;20.878;2024-01-15T06:10:04;97885.90;;;-0.18;82.87
50484;BME280;36409;52.168;20.878;2024-01-15T06:12:33;97879.91;;;-0.19;82.99
50484;BME280;36409;52.168;20.878;2024-01-15T06:15:06;97881.63;;;-0.19;83.23
50484;BME280;36409;52.168;20.878;2024-01-15T06:17:35;97871.38;;;-0.19;83.02
50484;BME280;36409;52.168;20.878;2024-01-15T06:20:06;97869.64;;;-0.19;83.16
50484;BME280;36409;52.168;20.878;2024-01-15T06:22:38;97867.94;;;-0.20;82.59
50484;BME280;36409;52.168;20.878;2024-01-15T06:25:10;97861.14;;;-0.22;82.25
50484;BME280;36409;52.168;20.878;2024-01-15T06:27:41;97862.00;;;-0.23;83.09
50484;BME280;36409;52.168;20.878;2024-01-15T06:30:14;97854.34;;;-0.25;82.41
50484;BME280;36409;52.168;20.878;2024-01-15T06:32:45;97852.64;;;-0.26;82.81
50484;BME280;36409;52.168;20.878;2024-01-15T06:35:15;97841.52;;;-0.26;82.33
50484;BME280;36409;52.168;20.878;2024-01-15T06:37:47;97838.95;;;-0.25;82.92
50484;BME280;36409;52.168;20.878;2024-01-15T06:40:17;97846.63;;;-0.23;82.90
50484;BME280;36409;52.168;20.878;2024-01-15T06:42:52;97845.73;;;-0.21;82.70
50484;BME280;36409;52.168;20.878;2024-01-15T06:45:21;97847.43;;;-0.20;83.19
50484;BME280;36409;52.168;20.878;2024-01-15T06:47:53;97853.40;;;-0.18;82.50
50484;BME280;36409;52.168;20.878;2024-01-15T06:50:22;97845.67;;;-0.16;82.35
50484;BME280;36409;52.168;20.878;2024-01-15T06:52:52;97838.84;;;-0.16;82.88
50484;BME280;36409;52.168;20.878;2024-01-15T06:55:24;97848.24;;;-0.14;82.97
50484;BME280;36409;52.168;20.878;2024-01-15T06:57:54;97845.67;;;-0.14;82.29
50484;BME280;36409;52.168;20.878;2024-01-15T07:00:24;97839.69;;;-0.13;83.14
50484;BME280;36409;52.168;20.878;2024-01-15T07:02:55;97843.95;;;-0.14;82.82
50484;BME280;36409;52.168;20.878;2024-01-15T07:05:25;97850.81;;;-0.14;81.86
50484;BME280;36409;52.168;20.878;2024-01-15T07:07:54;97848.24;;;-0.14;82.28
50484;BME280;36409;52.168;20.878;2024-01-15T07:10:24;97853.37;;;-0.16;82.21
50484;BME280;36409;52.168;20.878;2024-01-15T07:12:55;97849.14;;;-0.17;82.18
50484;BME280;36409;52.168;20.878;2024-01-15T07:15:26;97849.11;;;-0.16;81.97
50484;BME280;36409;52.168;20.878;2024-01-15T07:17:58;97848.23;;;-0.16;82.94
50484;BME280;36409;52.168;20.878;2024-01-15T07:20:31;97846.56;;;-0.19;82.22
50484;BME280;36409;52.168;20.878;2024-01-15T07:23:01;97844.87;;;-0.20;82.01
50484;BME280;36409;52.168;20.878;2024-01-15T07:25:31;97856.85;;;-0.20;82.64
50484;BME280;36409;52.168;20.878;2024-01-15T07:28:00;97854.28;;;-0.22;82.87
50484;BME280;36409;52.168;20.878;2024-01-15T07:30:30;97855.18;;;-0.23;82.31
50484;BME280;36409;52.168;20.878;2024-01-15T07:33:00;97852.61;;;-0.24;82.09
50484;BME280;36409;52.168;20.878;2024-01-15T07:35:32;97855.20;;;-0.26;82.27
50484;BME280;36409;52.168;20.878;2024-01-15T07:38:01;97856.06;;;-0.27;81.90
50484;BME280;36409;52.168;20.878;2024-01-15T07:40:31;97859.47;;;-0.26;81.70
50484;BME280;36409;52.168;20.878;2024-01-15T07:43:02;97873.15;;;-0.27;82.81
50484;BME280;36409;52.168;20.878;2024-01-15T07:45:31;97871.45;;;-0.27;82.11
50484;BME280;36409;52.168;20.878;2024-01-15T07:48:01;97868.86;;;-0.25;81.90
50484;BME280;36409;52.168;20.878;2024-01-15T07:50:34;97860.30;;;-0.24;81.83
50484;BME280;36409;52.168;20.878;2024-01-15T07:53:04;97871.40;;;-0.22;82.85
50484;BME280;36409;52.168;20.878;2024-01-15T07:55:42;97868.83;;;-0.22;81.91
50484;BME280;36409;52.168;20.878;2024-01-15T07:58:16;97870.51;;;-0.20;82.18
50484;BME280;36409;52.168;20.878;2024-01-15T08:00:45;97864.52;;;-0.19;81.96
50484;BME280;36409;52.168;20.878;2024-01-15T08:03:22;97867.94;;;-0.20;82.47
50484;BME280;36409;52.168;20.878;2024-01-15T08:05:52;97870.51;;;-0.20;82.52
50484;BME280;36409;52.168;20.878;2024-01-15T08:08:25;97884.19;;;-0.21;81.88
50484;BME280;36409;52.168;20.878;2024-01-15T08:10:57;97882.48;;;-0.22;82.69
50484;BME280;36409;52.168;20.878;2024-01-15T08:13:29;97876.50;;;-0.19;81.95
50484;BME280;36409;52.168;20.878;2024-01-15T08:16:01;97858.50;;;-0.16;81.91
50484;BME280;36409;52.168;20.878;2024-01-15T08:18:31;97865.30;;;-0.12;82.12
50484;BME280;36409;52.168;20.878;2024-01-15T08:21:01;97870.38;;;-0.06;82.03
50484;BME280;36409;52.168;20.878;2024-01-15T08:23:31;97872.84;;;0.04;82.93
50484;BME280;36409;52.168;20.878;2024-01-15T08:26:00;97863.30;;;0.15;82.04
50484;BME280;36409;52.168;20.878;2024-01-15T08:28:29;97870.02;;;0.25;82.29
50484;BME280;36409;52.168;20.878;2024-01-15T08:30:59;97870.76;;;0.34;81.93
50484;BME280;36409;52.168;20.878;2024-01-15T08:33:29;97869.83;;;0.39;82.59
50484;BME280;36409;52.168;20.878;2024-01-15T08:35:58;97870.66;;;0.40;82.41
50484;BME280;36409;52.168;20.878;2024-01-15T08:38:27;97864.79;;;0.33;82.61
50484;BME280;36409;52.168;20.878;2024-01-15T08:41:00;97874.28;;;0.25;82.56
50484;BME280;36409;52.168;20.878;2024-01-15T08:43:30;97875.23;;;0.18;81.77
50484;BME280;36409;52.168;20.878;2024-01-15T08:46:03;97880.45;;;0.10;82.17
50484;BME280;36409;52.168;20.878;2024-01-15T08:48:35;97886.50;;;0.04;82.34
50484;BME280;36409;52.168;20.878;2024-01-15T08:51:05;97880.59;;;-0.01;81.71
50484;BME280;36409;52.168;20.878;2024-01-15T08:53:35;97884.02;;;-0.04;81.85
50484;BME280;36409;52.168;20.878;2024-01-15T08:56:05;97882.28;;;-0.02;81.89
50484;BME280;36409;52.168;20.878;2024-01-15T08:58:35;97883.98;;;-0.01;82.10
50484;BME280;36409;52.168;20.878;2024-01-15T09:01:04;97894.16;;;0.06;82.05
50484;BME280;36409;52.168;20.878;2024-01-15T09:03:37;97889.81;;;0.12;82.07
50484;BME280;36409;52.168;20.878;2024-01-15T09:06:13;97890.56;;;0.22;82.23
50484;BME280;36409;52.168;20.878;2024-01-15T09:08:45;97881.05;;;0.32;82.63
50484;BME280;36409;52.168;20.878;2024-01-15T09:11:14;97882.47;;;0.53;82.50
50484;BME280;36409;52.168;20.878;2024-01-15T09:13:44;97886.55;;;0.70;82.10
50484;BME280;36409;52.168;20.878;2024-01-15T09:16:13;97879.54;;;0.81;82.31
50484;BME280;36409;52.168;20.878;2024-01-15T09:18:45;97878.49;;;0.93;82.41
50484;BME280;36409;52.168;20.878;2024-01-15T09:21:16;97879.22;;;1.03;82.12
50484;BME280;36409;52.168;20.878;2024-01-15T09:23:46;97878.23;;;1.10;82.15
50484;BME280;36409;52.168;20.878;2024-01-15T09:26:19;97874.83;;;1.10;82.01
50484;BME280;36409;52.168;20.878;2024-01-15T09:28:48;97874.91;;;1.05;82.30
50484;BME280;36409;52.168;20.878;2024-01-15T09:31:18;97872.41;;;1.00;81.76
50484;BME280;36409;52.168;20.878;2024-01-15T09:33:48;97866.37;;;1.03;81.83
50484;BME280;36409;52.168;20.878;2024-01-15T09:36:24;97861.20;;;1.06;81.36
50484;BME280;36409;52.168;20.878;2024-01-15T09:38:54;97864.48;;;1.13;82.02
50484;BME280;36409;52.168;20.878;2024-01-15T09:41:23;97863.58;;;1.17;81.51
50484;BME280;36409;52.168;20.878;2024-01-15T09:43:54;97861.00;;;1.17;82.09
50484;BME280;36409;52.168;20.878;2024-01-15T09:46:29;97869.55;;;1.19;81.46
50484;BME280;36409;52.168;20.878;2024-01-15T09:49:00;97857.45;;;1.24;81.55
50484;BME280;36409;52.168;20.878;2024-01-15T09:51:31;97864.29;;;1.25;80.87
50484;BME280;36409;52.168;20.878;2024-01-15T09:54:01;97872.08;;;1.20;81.31
50484;BME280;36409;52.168;20.878;2024-01-15T09:56:33;97857.56;;;1.18;80.75
50484;BME280;36409;52.168;20.878;2024-01-15T09:59:03;97852.46;;;1.16;80.78
50484;BME280;36409;52.168;20.878;2024-01-15T10:01:38;97862.73;;;1.16;81.38
50484;BME280;36409;52.168;20.878;2024-01-15T10:04:09;97858.44;;;1.17;81.57
50484;BME280;36409;52.168;20.878;2024-01-15T10:06:39;97856.73;;;1.17;80.50
50484;BME280;36409;52.168;20.878;2024-01-15T10:09:14;97855.86;;;1.17;81.07
50484;BME280;36409;52.168;20.878;2024-01-15T10:11:47;97865.31;;;1.16;80.63
50484;BME280;36409;52.168;20.878;2024-01-15T10:14:20;97858.44;;;1.17;80.69
50484;BME280;36409;52.168;20.878;2024-01-15T10:16:49;97868.75;;;1.15;80.88
50484;BME280;36409;52.168;20.878;2024-01-15T10:19:19;97855.98;;;1.11;80.34
50484;BME280;36409;52.168;20.878;2024-01-15T10:21:51;97863.69;;;1.11;81.03
50484;BME280;36409;52.168;20.878;2024-01-15T10:24:29;97853.45;;;1.07;80.73
50484;BME280;36409;52.168;20.878;2024-01-15T10:27:06;97859.45;;;1.06;81.31
50484;BME280;36409;52.168;20.878;2024-01-15T10:29:36;97861.27;;;1.01;81.18
50484;BME280;36409;52.168;20.878;2024-01-15T10:32:27;97857.00;;;1.00;80.06
50484;BME280;36409;52.168;20.878;2024-01-15T10:34:56;97858.63;;;1.04;80.43
50484;BME280;36409;52.168;20.878;2024-01-15T10:37:26;97860.77;;;1.32;80.42
50484;BME280;36409;52.168;20.878;2024-01-15T10:39:57;97858.67;;;2.00;79.82
50484;BME280;36409;52.168;20.878;2024-01-15T10:42:27;97847.67;;;2.75;78.87
50484;BME280;36409;52.168;20.878;2024-01-15T10:44:59;97841.48;;;2.84;78.61
50484;BME280;36409;52.168;20.878;2024-01-15T10:47:29;97831.94;;;3.23;78.56
50484;BME280;36409;52.168;20.878;2024-01-15T10:50:01;97832.55;;;3.99;77.36
50484;BME280;36409;52.168;20.878;2024-01-15T10:52:31;97847.31;;;3.61;78.06
50484;BME280;36409;52.168;20.878;2024-01-15T10:55:04;97849.82;;;3.30;79.14
50484;BME280;36409;52.168;20.878;2024-01-15T10:57:43;97843.72;;;2.98;79.13
50484;BME280;36409;52.168;20.878;2024-01-15T11:03:06;97854.29;;;2.47;79.39
50484;BME280;36409;52.168;20.878;2024-01-15T11:05:38;97845.02;;;2.39;79.07
50484;BME280;36409;52.168;20.878;2024-01-15T11:08:11;97849.34;;;2.38;79.07
50484;BME280;36409;52.168;20.878;2024-01-15T11:10:42;97843.63;;;2.24;78.83
50484;BME280;36409;52.168;20.878;2024-01-15T11:13:19;97852.47;;;2.10;79.12
50484;BME280;36409;52.168;20.878;2024-01-15T11:16:00;97839.84;;;1.98;78.52
50484;BME280;36409;52.168;20.878;2024-01-15T11:18:34;97830.52;;;1.92;79.42
50484;BME280;36409;52.168;20.878;2024-01-15T11:21:24;97836.63;;;1.87;78.48
50484;BME280;36409;52.168;20.878;2024-01-15T11:23:56;97842.64;;;1.87;78.86
50484;BME280;36409;52.168;20.878;2024-01-15T11:26:32;97835.66;;;1.92;78.63
50484;BME280;36409;52.168;20.878;2024-01-15T11:29:04;97842.59;;;1.89;78.58
50484;BME280;36409;52.168;20.878;2024-01-15T11:31:59;97824.81;;;1.78;79.13
50484;BME280;36409;52.168;20.878;2024-01-15T11:34:50;97829.27;;;1.68;79.10
50484;BME280;36409;52.168;20.878;2024-01-15T11:37:21;97838.95;;;1.55;78.89
50484;BME280;36409;52.168;20.878;2024-01-15T11:39:55;97830.58;;;1.44;78.26
50484;BME280;36409;52.168;20.878;2024-01-15T11:42:27;97835.06;;;1.32;78.15
50484;BME280;36409;52.168;20.878;2024-01-15T11:44:57;97838.63;;;1.23;78.40
50484;BME280;36409;52.168;20.878;2024-01-15T11:47:52;97831.95;;;1.13;79.26
50484;BME280;36409;52.168;20.878;2024-01-15T11:50:31;97828.66;;;1.05;78.14
50484;BME280;36409;52.168;20.878;2024-01-15T11:53:02;97825.22;;;1.04;79.01
50484;BME280;36409;52.168;20.878;2024-01-15T11:55:44;97821.59;;;1.18;79.00
50484;BME280;36409;52.168;20.878;2024-01-15T11:58:14;97817.27;;;1.20;79.19
50484;BME280;36409;52.168;20.878;2024-01-15T12:00:48;97827.64;;;1.14;79.22
50484;BME280;36409;52.168;20.878;2024-01-15T12:03:26;97817.52;;;1.06;78.32
50484;BME280;36409;52.168;20.878;2024-01-15T12:05:55;97821.03;;;0.99;78.29
50484;BME280;36409;52.168;20.878;2024-01-15T12:08:28;97827.95;;;0.95;78.85
50484;BME280;36409;52.168;20.878;2024-01-15T12:10:58;97823.72;;;0.91;78.98
50484;BME280;36409;52.168;20.878;2024-01-15T12:13:27;97822.96;;;0.86;78.21
50484;BME280;36409;52.168;20.878;2024-01-15T12:15:57;97817.03;;;0.81;79.33
50484;BME280;36409;52.168;20.878;2024-01-15T12:18:26;97817.03;;;0.81;78.66
50484;BME280;36409;52.168;20.878;2024-01-15T12:20:58;97825.60;;;0.81;78.24
50484;BME280;36409;52.168;20.878;2024-01-15T12:23:28;97818.77;;;0.80;78.77
50484;BME280;36409;52.168;20.878;2024-01-15T12:25:57;97818.05;;;0.70;78.58
50484;BME280;36409;52.168;20.878;2024-01-15T12:28:28;97819.92;;;0.60;79.23
50484;BME280;36409;52.168;20.878;2024-01-15T12:31:00;97819.16;;;0.52;79.24
50484;BME280;36409;52.168;20.878;2024-01-15T12:33:34;97820.09;;;0.48;78.40
50484;BME280;36409;52.168;20.878;2024-01-15T12:36:06;97817.56;;;0.45;79.16
50484;BME280;36409;52.168;20.878;2024-01-15T12:38:35;97810.80;;;0.39;78.65
50484;BME280;36409;52.168;20.878;2024-01-15T12:41:06;97810.06;;;0.31;78.10
50484;BME280;36409;52.168;20.878;2024-01-15T12:43:35;97810.16;;;0.23;79.25
50484;BME280;36409;52.168;20.878;2024-01-15T12:46:04;97801.59;;;0.23;79.24
50484;BME280;36409;52.168;20.878;2024-01-15T12:48:35;97810.92;;;0.28;78.44
50484;BME280;36409;52.168;20.878;2024-01-15T12:51:07;97806.63;;;0.30;79.12
50484;BME280;36409;52.168;20.878;2024-01-15T12:53:36;97813.49;;;0.28;78.71
50484;BME280;36409;52.168;20.878;2024-01-15T12:56:06;97810.99;;;0.24;79.55
50484;BME280;36409;52.168;20.878;2024-01-15T12:58:36;97815.32;;;0.20;79.53
50484;BME280;36409;52.168;20.878;2024-01-15T13:01:05;97826.52;;;0.16;79.57
50484;BME280;36409;52.168;20.878;2024-01-15T13:03:34;97829.11;;;0.11;79.41
50484;BME280;36409;52.168;20.878;2024-01-15T13:06:05;97837.76;;;0.04;78.43
50484;BME280;36409;52.168;20.878;2024-01-15T13:08:34;97839.57;;;-0.04;78.39
50484;BME280;36409;52.168;20.878;2024-01-15T13:11:03;97837.92;;;-0.10;78.96
50484;BME280;36409;52.168;20.878;2024-01-15T13:13:36;97839.68;;;-0.15;79.31
50484;BME280;36409;52.168;20.878;2024-01-15T13:16:06;97844.01;;;-0.17;79.22
50484;BME280;36409;52.168;20.878;2024-01-15T13:18:37;97835.45;;;-0.18;79.25
50484;BME280;36409;52.168;20.878;2024-01-15T13:21:06;97836.31;;;-0.19;79.36